sensor_id;sensor_type;location;lat;lon;timestamp;pressure;altitude;pressure_sealevel;temperature;humidity
20455;BME280;10386;54.314;10.022;2022-09-24T00:01:24;100846.28;;;10.51;100.00
20455;BME280;10386;54.314;10.022;2022-09-24T00:03:54;100859.09;;;10.49;100.00
20455;BME280;10386;54.314;10.022;2022-09-24T00:06:22;100838.13;;;10.51;100.00
20455;BME280;10386;54.314;10.022;2022-09-24T00:08:50;100840.41;;;10.70;100.00
20455;BME280;10386;54.314;10.022;2022-09-24T00:11:17;100834.00;;;10.71;100.00
20455;BME280;10386;54.314;10.022;2022-09-24T00:13:48;100809.75;;;10.80;100.00
20455;BME280;10386;54.314;10.022;2022-09-24T00:16:17;100797.97;;;11.04;100.00
20455;BME280;10386;54.314;10.022;2022-09-24T00:18:44;100799.19;;;11.00;100.00
20455;BME280;10386;54.314;10.022;2022-09-24T00:21:22;100793.72;;;11.13;100.00
20455;BME280;10386;54.314;10.022;2022-09-24T00:23:51;100793.81;;;11.11;100.00
20455;BME280;10386;54.314;10.022;2022-09-24T00:26:19;100797.97;;;11.04;100.00
20455;BME280;10386;54.314;10.022;2022-09-24T00:29:06;100786.88;;;11.07;100.00
20455;BME280;10386;54.314;10.022;2022-09-24T00:31:34;100790.47;;;11.08;100.00
20455;BME280;10386;54.314;10.022;2022-09-24T00:34:01;100781.88;;;11.14;100.00
20455;BME280;10386;54.314;10.022;2022-09-24T00:36:28;100782.78;;;11.25;100.00
20455;BME280;10386;54.314;10.022;2022-09-24T00:38:57;100769.56;;;11.21;100.00
20455;BME280;10386;54.314;10.022;2022-09-24T00:41:27;100755.72;;;11.47;100.00
20455;BME280;10386;54.314;10.022;2022-09-24T00:43:54;100758.84;;;11.30;100.00
20455;BME280;10386;54.314;10.022;2022-09-24T00:46:39;100759.38;;;11.35;100.00
20455;BME280;10386;54.314;10.022;2022-09-24T00:49:17;100760.03;;;11.39;100.00
20455;BME280;10386;54.314;10.022;2022-09-24T00:51:48;100748.03;;;11.41;100.00
20455;BME280;10386;54.314;10.022;2022-09-24T00:54:21;100745.38;;;11.52;100.00
20455;BME280;10386;54.314;10.022;2022-09-24T00:56:51;100747.56;;;11.47;100.00
20455;BME280;10386;54.314;10.022;2022-09-24T00:59:21;100759.03;;;11.40;100.00
20455;BME280;10386;54.314;10.022;2022-09-24T01:01:50;100744.47;;;11.41;100.00
20455;BME280;10386;54.314;10.022;2022-09-24T01:04:20;100749.94;;;11.28;100.00
20455;BME280;10386;54.314;10.022;2022-09-24T01:06:48;100755.03;;;11.09;100.00
20455;BME280;10386;54.314;10.022;2022-09-24T01:09:17;100754.47;;;11.17;100.00
20455;BME280;10386;54.314;10.022;2022-09-24T01:20:32;100737.38;;;11.38;100.00
20455;BME280;10386;54.314;10.022;2022-09-24T01:29:28;100729.19;;;11.51;100.00
20455;BME280;10386;54.314;10.022;2022-09-24T01:32:08;100722.00;;;11.50;100.00
20455;BME280;10386;54.314;10.022;2022-09-24T01:34:41;100727.09;;;11.54;100.00
20455;BME280;10386;54.314;10.022;2022-09-24T01:37:10;100723.56;;;11.41;100.00
20455;BME280;10386;54.314;10.022;2022-09-24T01:39:40;100721.44;;;11.34;100.00
20455;BME280;10386;54.314;10.022;2022-09-24T01:42:11;100726.53;;;11.38;100.00
20455;BME280;10386;54.314;10.022;2022-09-24T01:44:39;100721.97;;;11.39;100.00
20455;BME280;10386;54.314;10.022;2022-09-24T01:47:15;100719.72;;;11.33;100.00
20455;BME280;10386;54.314;10.022;2022-09-24T01:49:44;100728.19;;;11.28;100.00
20455;BME280;10386;54.314;10.022;2022-09-24T01:52:15;100733.78;;;11.27;100.00
20455;BME280;10386;54.314;10.022;2022-09-24T01:54:44;100724.63;;;11.28;100.00
20455;BME280;10386;54.314;10.022;2022-09-24T01:57:22;100725.19;;;11.20;100.00
20455;BME280;10386;54.314;10.022;2022-09-24T02:00:09;100728.66;;;11.22;100.00
20455;BME280;10386;54.314;10.022;2022-09-24T02:02:50;100714.97;;;11.24;100.00
20455;BME280;10386;54.314;10.022;2022-09-24T02:05:35;100716.72;;;11.25;100.00
20455;BME280;10386;54.314;10.022;2022-09-24T02:08:08;100705.09;;;11.23;100.00
20455;BME280;10386;54.314;10.022;2022-09-24T02:10:55;100710.53;;;11.23;100.00
20455;BME280;10386;54.314;10.022;2022-09-24T02:13:25;100718.91;;;11.20;100.00
20455;BME280;10386;54.314;10.022;2022-09-24T02:15:57;100711.28;;;11.25;100.00
20455;BME280;10386;54.314;10.022;2022-09-24T02:18:33;100705.84;;;11.25;100.00
20455;BME280;10386;54.314;10.022;2022-09-24T02:21:03;100708.56;;;11.25;100.00
20455;BME280;10386;54.314;10.022;2022-09-24T02:23:32;100704.41;;;11.32;100.00
20455;BME280;10386;54.314;10.022;2022-09-24T02:26:03;100697.69;;;11.25;100.00
20455;BME280;10386;54.314;10.022;2022-09-24T02:28:31;100706.19;;;11.20;100.00
20455;BME280;10386;54.314;10.022;2022-09-24T02:31:08;100699.91;;;11.20;100.00
20455;BME280;10386;54.314;10.022;2022-09-24T02:33:40;100698.50;;;11.38;100.00
20455;BME280;10386;54.314;10.022;2022-09-24T02:36:27;100697.22;;;11.31;100.00
20455;BME280;10386;54.314;10.022;2022-09-24T02:38:54;100691.13;;;11.27;100.00
20455;BME280;10386;54.314;10.022;2022-09-24T02:41:23;100695.97;;;11.24;100.00
20455;BME280;10386;54.314;10.022;2022-09-24T02:43:51;100692.81;;;11.17;100.00
20455;BME280;10386;54.314;10.022;2022-09-24T02:46:18;100692.81;;;11.17;100.00
20455;BME280;10386;54.314;10.022;2022-09-24T02:48:45;100693.81;;;11.16;100.00
20455;BME280;10386;54.314;10.022;2022-09-24T02:51:12;100688.13;;;11.19;100.00
20455;BME280;10386;54.314;10.022;2022-09-24T02:53:39;100682.13;;;11.27;100.00
20455;BME280;10386;54.314;10.022;2022-09-24T02:56:07;100673.94;;;11.16;100.00
20455;BME280;10386;54.314;10.022;2022-09-24T02:58:34;100673.38;;;11.34;100.00
20455;BME280;10386;54.314;10.022;2022-09-24T03:01:03;100666.69;;;11.27;100.00
20455;BME280;10386;54.314;10.022;2022-09-24T03:03:31;100676.19;;;11.22;100.00
20455;BME280;10386;54.314;10.022;2022-09-24T03:05:58;100673.19;;;11.14;100.00
20455;BME280;10386;54.314;10.022;2022-09-24T03:08:25;100669.59;;;11.13;100.00
20455;BME280;10386;54.314;10.022;2022-09-24T03:10:52;100671.09;;;11.17;100.00
20455;BME280;10386;54.314;10.022;2022-09-24T03:13:22;100663.31;;;11.13;100.00
20455;BME280;10386;54.314;10.022;2022-09-24T03:15:49;100659.66;;;11.25;100.00
20455;BME280;10386;54.314;10.022;2022-09-24T03:18:16;100654.44;;;11.22;100.00
20455;BME280;10386;54.314;10.022;2022-09-24T03:20:42;100653.69;;;11.20;100.00
20455;BME280;10386;54.314;10.022;2022-09-24T03:23:09;100654.16;;;11.14;100.00
20455;BME280;10386;54.314;10.022;2022-09-24T03:25:36;100649.72;;;11.13;100.00
20455;BME280;10386;54.314;10.022;2022-09-24T03:28:04;100646.13;;;11.12;100.00
20455;BME280;10386;54.314;10.022;2022-09-24T03:30:31;100642.84;;;11.20;100.00
20455;BME280;10386;54.314;10.022;2022-09-24T03:33:16;100638.38;;;11.19;100.00
20455;BME280;10386;54.314;10.022;2022-09-24T03:35:42;100627.78;;;11.27;100.00
20455;BME280;10386;54.314;10.022;2022-09-24T03:38:09;100626.91;;;11.26;100.00
20455;BME280;10386;54.314;10.022;2022-09-24T03:40:36;100623.56;;;11.23;100.00
20455;BME280;10386;54.314;10.022;2022-09-24T03:43:03;100625.53;;;11.21;100.00
20455;BME280;10386;54.314;10.022;2022-09-24T03:45:30;100627.63;;;11.17;100.00
20455;BME280;10386;54.314;10.022;2022-09-24T03:47:57;100629.72;;;11.14;100.00
20455;BME280;10386;54.314;10.022;2022-09-24T03:50:24;100616.38;;;11.11;100.00
20455;BME280;10386;54.314;10.022;2022-09-24T03:52:51;100620.59;;;11.15;100.00
20455;BME280;10386;54.314;10.022;2022-09-24T03:55:18;100619.47;;;11.17;100.00
20455;BME280;10386;54.314;10.022;2022-09-24T03:57:44;100609.34;;;11.19;100.00
20455;BME280;10386;54.314;10.022;2022-09-24T04:00:12;100608.50;;;11.19;100.00
20455;BME280;10386;54.314;10.022;2022-09-24T04:02:39;100609.00;;;11.24;100.00
20455;BME280;10386;54.314;10.022;2022-09-24T04:05:06;100599.88;;;11.36;100.00
20455;BME280;10386;54.314;10.022;2022-09-24T04:07:33;100599.88;;;11.36;100.00
20455;BME280;10386;54.314;10.022;2022-09-24T04:10:00;100602.97;;;11.42;100.00
20455;BME280;10386;54.314;10.022;2022-09-24T04:12:27;100594.22;;;11.50;100.00
20455;BME280;10386;54.314;10.022;2022-09-24T04:14:55;100598.78;;;11.38;100.00
20455;BME280;10386;54.314;10.022;2022-09-24T04:17:21;100588.78;;;11.39;100.00
20455;BME280;10386;54.314;10.022;2022-09-24T04:19:48;100594.69;;;11.33;100.00
20455;BME280;10386;54.314;10.022;2022-09-24T04:22:19;100593.91;;;11.20;100.00
20455;BME280;10386;54.314;10.022;2022-09-24T04:24:46;100597.88;;;11.16;100.00
20455;BME280;10386;54.314;10.022;2022-09-24T04:27:13;100600.59;;;11.16;100.00
20455;BME280;10386;54.314;10.022;2022-09-24T04:29:40;100593.50;;;11.13;100.00
20455;BME280;10386;54.314;10.022;2022-09-24T04:32:07;100594.63;;;11.11;100.00
20455;BME280;10386;54.314;10.022;2022-09-24T04:34:34;100586.25;;;11.14;100.00
20455;BME280;10386;54.314;10.022;2022-09-24T04:37:01;100576.38;;;11.13;100.00
20455;BME280;10386;54.314;10.022;2022-09-24T04:39:28;100573.66;;;11.13;100.00
20455;BME280;10386;54.314;10.022;2022-09-24T04:41:54;100572.66;;;11.14;100.00
20455;BME280;10386;54.314;10.022;2022-09-24T04:44:21;100574.97;;;11.07;100.00
20455;BME280;10386;54.314;10.022;2022-09-24T04:46:49;100565.09;;;11.06;100.00
20455;BME280;10386;54.314;10.022;2022-09-24T04:49:16;100560.31;;;11.10;100.00
20455;BME280;10386;54.314;10.022;2022-09-24T04:51:43;100563.47;;;11.04;100.00
20455;BME280;10386;54.314;10.022;2022-09-24T04:54:09;100557.94;;;11.05;100.00
20455;BME280;10386;54.314;10.022;2022-09-24T04:56:36;100561.53;;;11.06;100.00
20455;BME280;10386;54.314;10.022;2022-09-24T04:59:03;100542.28;;;11.09;100.00
20455;BME280;10386;54.314;10.022;2022-09-24T05:01:30;100545.44;;;11.03;100.00
20455;BME280;10386;54.314;10.022;2022-09-24T05:03:57;100545.66;;;11.00;100.00
20455;BME280;10386;54.314;10.022;2022-09-24T05:06:24;100541.53;;;11.07;100.00
20455;BME280;10386;54.314;10.022;2022-09-24T05:08:51;100537.94;;;11.06;100.00
20455;BME280;10386;54.314;10.022;2022-09-24T05:11:18;100540.53;;;11.08;100.00
20455;BME280;10386;54.314;10.022;2022-09-24T05:13:45;100534.22;;;11.07;100.00
20455;BME280;10386;54.314;10.022;2022-09-24T05:16:12;100531.41;;;11.09;100.00
20455;BME280;10386;54.314;10.022;2022-09-24T05:18:39;100532.50;;;11.06;100.00
20455;BME280;10386;54.314;10.022;2022-09-24T05:21:08;100536.47;;;11.13;100.00
20455;BME280;10386;54.314;10.022;2022-09-24T05:23:35;100567.81;;;11.06;100.00
20455;BME280;10386;54.314;10.022;2022-09-24T05:26:01;100569.13;;;11.01;100.00
20455;BME280;10386;54.314;10.022;2022-09-24T05:28:47;100567.31;;;11.01;100.00
20455;BME280;10386;54.314;10.022;2022-09-24T05:31:14;100571.63;;;11.04;100.00
20455;BME280;10386;54.314;10.022;2022-09-24T05:33:41;100564.69;;;11.00;100.00
20455;BME280;10386;54.314;10.022;2022-09-24T05:36:08;100568.16;;;11.02;100.00
20455;BME280;10386;54.314;10.022;2022-09-24T05:38:35;100561.38;;;11.07;100.00
20455;BME280;10386;54.314;10.022;2022-09-24T05:41:07;100551.53;;;11.17;100.00
20455;BME280;10386;54.314;10.022;2022-09-24T05:43:33;100520.94;;;11.37;100.00
20455;BME280;10386;54.314;10.022;2022-09-24T05:46:00;100524.28;;;11.41;100.00
20455;BME280;10386;54.314;10.022;2022-09-24T05:48:27;100527.38;;;11.47;100.00
20455;BME280;10386;54.314;10.022;2022-09-24T05:50:54;100527.25;;;11.49;100.00
20455;BME280;10386;54.314;10.022;2022-09-24T05:53:22;100524.66;;;11.47;100.00
20455;BME280;10386;54.314;10.022;2022-09-24T05:55:49;100526.03;;;11.53;100.00
20455;BME280;10386;54.314;10.022;2022-09-24T05:58:16;100530.16;;;11.58;100.00
20455;BME280;10386;54.314;10.022;2022-09-24T06:00:43;100529.41;;;11.56;100.00
20455;BME280;10386;54.314;10.022;2022-09-24T06:03:14;100530.16;;;11.58;100.00
20455;BME280;10386;54.314;10.022;2022-09-24T06:05:47;100535.34;;;11.61;100.00
20455;BME280;10386;54.314;10.022;2022-09-24T06:08:15;100526.81;;;11.66;100.00
20455;BME280;10386;54.314;10.022;2022-09-24T06:10:43;100532.00;;;11.69;100.00
20455;BME280;10386;54.314;10.022;2022-09-24T06:13:17;100524.44;;;12.05;100.00
20455;BME280;10386;54.314;10.022;2022-09-24T06:15:44;100531.78;;;11.94;100.00
20455;BME280;10386;54.314;10.022;2022-09-24T06:18:11;100531.13;;;11.90;100.00
20455;BME280;10386;54.314;10.022;2022-09-24T06:20:38;100522.38;;;11.98;100.00
20455;BME280;10386;54.314;10.022;2022-09-24T06:23:05;100529.88;;;12.05;100.00
20455;BME280;10386;54.314;10.022;2022-09-24T06:25:33;100523.09;;;12.11;100.00
20455;BME280;10386;54.314;10.022;2022-09-24T06:28:02;100523.31;;;12.19;100.00
20455;BME280;10386;54.314;10.022;2022-09-24T06:30:35;100523.78;;;12.24;100.00
20455;BME280;10386;54.314;10.022;2022-09-24T06:33:05;100529.56;;;12.30;100.00
20455;BME280;10386;54.314;10.022;2022-09-24T06:35:34;100533.16;;;12.41;100.00
20455;BME280;10386;54.314;10.022;2022-09-24T06:38:03;100538.22;;;12.46;100.00
20455;BME280;10386;54.314;10.022;2022-09-24T06:40:30;100539.22;;;12.45;100.00
20455;BME280;10386;54.314;10.022;2022-09-24T06:43:09;100544.75;;;12.54;100.00
20455;BME280;10386;54.314;10.022;2022-09-24T06:45:40;100548.81;;;12.60;100.00
20455;BME280;10386;54.314;10.022;2022-09-24T06:48:10;100538.72;;;12.71;100.00
20455;BME280;10386;54.314;10.022;2022-09-24T06:50:42;100547.38;;;12.87;100.00
20455;BME280;10386;54.314;10.022;2022-09-24T06:53:10;100554.78;;;12.96;100.00
20455;BME280;10386;54.314;10.022;2022-09-24T06:55:38;100557.84;;;13.03;100.00
20455;BME280;10386;54.314;10.022;2022-09-24T06:58:10;100565.91;;;13.04;100.00
20455;BME280;10386;54.314;10.022;2022-09-24T07:00:38;100569.41;;;13.16;100.00
20455;BME280;10386;54.314;10.022;2022-09-24T07:03:06;100566.91;;;13.24;100.00
20455;BME280;10386;54.314;10.022;2022-09-24T07:05:33;100575.88;;;13.35;100.00
20455;BME280;10386;54.314;10.022;2022-09-24T07:08:08;100571.28;;;13.56;100.00
20455;BME280;10386;54.314;10.022;2022-09-24T07:10:35;100579.72;;;13.53;100.00
20455;BME280;10386;54.314;10.022;2022-09-24T07:13:01;100595.78;;;13.47;100.00
20455;BME280;10386;54.314;10.022;2022-09-24T07:15:28;100599.34;;;13.68;100.00
20455;BME280;10386;54.314;10.022;2022-09-24T07:17:55;100609.41;;;13.67;100.00
20455;BME280;10386;54.314;10.022;2022-09-24T07:20:24;100619.78;;;13.73;100.00
20455;BME280;10386;54.314;10.022;2022-09-24T07:22:53;100621.84;;;13.80;100.00
20455;BME280;10386;54.314;10.022;2022-09-24T07:25:21;100631.56;;;13.94;100.00
20455;BME280;10386;54.314;10.022;2022-09-24T07:27:48;100636.31;;;14.01;100.00
20455;BME280;10386;54.314;10.022;2022-09-24T07:30:15;100650.19;;;14.09;100.00
20455;BME280;10386;54.314;10.022;2022-09-24T07:32:42;100656.22;;;14.13;100.00
20455;BME280;10386;54.314;10.022;2022-09-24T07:35:09;100673.41;;;14.24;100.00
20455;BME280;10386;54.314;10.022;2022-09-24T07:37:36;100683.28;;;14.16;100.00
20455;BME280;10386;54.314;10.022;2022-09-24T07:40:03;100705.31;;;14.24;100.00
20455;BME280;10386;54.314;10.022;2022-09-24T07:42:30;100715.28;;;14.14;100.00
20455;BME280;10386;54.314;10.022;2022-09-24T07:44:56;100720.44;;;14.28;100.00
20455;BME280;10386;54.314;10.022;2022-09-24T07:47:26;100735.88;;;14.18;100.00
20455;BME280;10386;54.314;10.022;2022-09-24T07:49:53;100732.69;;;14.33;100.00
20455;BME280;10386;54.314;10.022;2022-09-24T07:52:20;100743.91;;;14.40;100.00
20455;BME280;10386;54.314;10.022;2022-09-24T07:54:47;100753.09;;;14.39;100.00
20455;BME280;10386;54.314;10.022;2022-09-24T07:57:15;100768.03;;;14.35;100.00
20455;BME280;10386;54.314;10.022;2022-09-24T07:59:41;100780.50;;;14.28;100.00
20455;BME280;10386;54.314;10.022;2022-09-24T08:02:15;100770.91;;;14.54;100.00
20455;BME280;10386;54.314;10.022;2022-09-24T08:04:43;100779.66;;;14.78;100.00
20455;BME280;10386;54.314;10.022;2022-09-24T08:07:11;100798.41;;;14.92;100.00
20455;BME280;10386;54.314;10.022;2022-09-24T08:09:38;100801.78;;;15.05;100.00
20455;BME280;10386;54.314;10.022;2022-09-24T08:12:06;100813.34;;;15.18;100.00
20455;BME280;10386;54.314;10.022;2022-09-24T08:14:32;100828.72;;;15.09;100.00
20455;BME280;10386;54.314;10.022;2022-09-24T08:16:59;100851.06;;;15.14;100.00
20455;BME280;10386;54.314;10.022;2022-09-24T08:19:27;100859.41;;;15.42;100.00
20455;BME280;10386;54.314;10.022;2022-09-24T08:21:56;100870.13;;;15.64;100.00
20455;BME280;10386;54.314;10.022;2022-09-24T08:24:24;100884.13;;;15.80;100.00
20455;BME280;10386;54.314;10.022;2022-09-24T08:26:51;100914.56;;;15.96;100.00
20455;BME280;10386;54.314;10.022;2022-09-24T08:29:18;100914.44;;;16.07;100.00
20455;BME280;10386;54.314;10.022;2022-09-24T08:31:45;100946.88;;;16.02;100.00
20455;BME280;10386;54.314;10.022;2022-09-24T08:34:13;100959.59;;;16.13;100.00
20455;BME280;10386;54.314;10.022;2022-09-24T08:36:40;100968.25;;;16.18;100.00
20455;BME280;10386;54.314;10.022;2022-09-24T08:39:09;100986.34;;;16.39;100.00
20455;BME280;10386;54.314;10.022;2022-09-24T08:41:46;101011.75;;;16.41;100.00
20455;BME280;10386;54.314;10.022;2022-09-24T08:47:37;101044.44;;;16.03;100.00
20455;BME280;10386;54.314;10.022;2022-09-24T08:50:21;101048.69;;;15.77;100.00
20455;BME280;10386;54.314;10.022;2022-09-24T08:55:40;101061.50;;;15.77;100.00
20455;BME280;10386;54.314;10.022;2022-09-24T08:58:25;101052.97;;;15.70;100.00
20455;BME280;10386;54.314;10.022;2022-09-24T09:01:10;101068.03;;;15.65;100.00
20455;BME280;10386;54.314;10.022;2022-09-24T09:03:57;101059.44;;;15.69;100.00
20455;BME280;10386;54.314;10.022;2022-09-24T09:07:04;101073.91;;;15.81;100.00
20455;BME280;10386;54.314;10.022;2022-09-24T09:12:16;101079.88;;;15.95;100.00
20455;BME280;10386;54.314;10.022;2022-09-24T09:17:39;101093.63;;;15.75;100.00
20455;BME280;10386;54.314;10.022;2022-09-24T09:20:32;101087.34;;;15.84;100.00
20455;BME280;10386;54.314;10.022;2022-09-24T09:23:14;101090.19;;;16.12;100.00
20455;BME280;10386;54.314;10.022;2022-09-24T09:25:50;101098.50;;;16.31;100.00
20455;BME280;10386;54.314;10.022;2022-09-24T09:28:19;101107.84;;;16.19;100.00
20455;BME280;10386;54.314;10.022;2022-09-24T09:36:19;101109.38;;;15.82;100.00
20455;BME280;10386;54.314;10.022;2022-09-24T09:42:01;101112.38;;;16.09;100.00
20455;BME280;10386;54.314;10.022;2022-09-24T09:44:38;101111.34;;;16.01;100.00
20455;BME280;10386;54.314;10.022;2022-09-24T09:47:35;101120.44;;;16.31;100.00
20455;BME280;10386;54.314;10.022;2022-09-24T09:50:09;101120.03;;;16.15;100.00
20455;BME280;10386;54.314;10.022;2022-09-24T09:52:38;101118.13;;;16.06;100.00
20455;BME280;10386;54.314;10.022;2022-09-24T09:55:06;101115.63;;;15.94;100.00
20455;BME280;10386;54.314;10.022;2022-09-24T09:57:34;101113.53;;;16.07;100.00
20455;BME280;10386;54.314;10.022;2022-09-24T10:00:02;101118.50;;;15.92;100.00
20455;BME280;10386;54.314;10.022;2022-09-24T10:02:32;101119.50;;;15.91;100.00
20455;BME280;10386;54.314;10.022;2022-09-24T10:05:02;101117.97;;;16.28;100.00
20455;BME280;10386;54.314;10.022;2022-09-24T10:07:30;101127.41;;;16.15;100.00
20455;BME280;10386;54.314;10.022;2022-09-24T10:10:23;101117.81;;;16.00;100.00
20455;BME280;10386;54.314;10.022;2022-09-24T10:13:11;101116.81;;;16.31;100.00
20455;BME280;10386;54.314;10.022;2022-09-24T10:16:12;101121.09;;;16.24;100.00
20455;BME280;10386;54.314;10.022;2022-09-24T10:18:46;101126.47;;;16.25;100.00
20455;BME280;10386;54.314;10.022;2022-09-24T10:21:32;101127.47;;;16.54;100.00
20455;BME280;10386;54.314;10.022;2022-09-24T10:24:03;101126.53;;;16.83;100.00
20455;BME280;10386;54.314;10.022;2022-09-24T10:26:39;101134.34;;;16.49;100.00
20455;BME280;10386;54.314;10.022;2022-09-24T10:29:16;101139.56;;;16.52;100.00
20455;BME280;10386;54.314;10.022;2022-09-24T10:32:05;101148.84;;;16.30;100.00
20455;BME280;10386;54.314;10.022;2022-09-24T10:34:33;101150.34;;;16.34;100.00
20455;BME280;10386;54.314;10.022;2022-09-24T10:37:11;101148.38;;;16.25;100.00
20455;BME280;10386;54.314;10.022;2022-09-24T10:39:39;101158.44;;;16.45;100.00
20455;BME280;10386;54.314;10.022;2022-09-24T10:42:23;101144.31;;;16.50;100.00
20455;BME280;10386;54.314;10.022;2022-09-24T10:44:52;101150.72;;;16.60;100.00
20455;BME280;10386;54.314;10.022;2022-09-24T10:50:29;101164.84;;;17.04;100.00
20455;BME280;10386;54.314;10.022;2022-09-24T10:53:07;101170.13;;;16.96;100.00
20455;BME280;10386;54.314;10.022;2022-09-24T11:07:41;101200.56;;;17.42;100.00
20455;BME280;10386;54.314;10.022;2022-09-24T11:10:32;101212.00;;;17.56;100.00
20455;BME280;10386;54.314;10.022;2022-09-24T11:18:59;101222.16;;;17.16;100.00
20455;BME280;10386;54.314;10.022;2022-09-24T11:22:07;101215.00;;;17.34;100.00
20455;BME280;10386;54.314;10.022;2022-09-24T11:24:49;101213.44;;;17.51;100.00
20455;BME280;10386;54.314;10.022;2022-09-24T11:35:37;101219.25;;;17.08;100.00
20455;BME280;10386;54.314;10.022;2022-09-24T11:43:44;101231.88;;;17.30;100.00
20455;BME280;10386;54.314;10.022;2022-09-24T11:49:04;101225.16;;;17.43;100.00
20455;BME280;10386;54.314;10.022;2022-09-24T11:51:54;101219.00;;;17.21;100.00
20455;BME280;10386;54.314;10.022;2022-09-24T11:54:51;101225.72;;;17.47;100.00
20455;BME280;10386;54.314;10.022;2022-09-24T11:57:36;101215.03;;;17.53;100.00
20455;BME280;10386;54.314;10.022;2022-09-24T12:00:26;101222.09;;;17.84;100.00
20455;BME280;10386;54.314;10.022;2022-09-24T12:03:04;101222.25;;;17.54;100.00
20455;BME280;10386;54.314;10.022;2022-09-24T12:05:39;101215.75;;;17.55;100.00
20455;BME280;10386;54.314;10.022;2022-09-24T12:08:20;101215.59;;;17.38;100.00
20455;BME280;10386;54.314;10.022;2022-09-24T12:11:03;101232.78;;;17.40;100.00
20455;BME280;10386;54.314;10.022;2022-09-24T12:13:39;101221.59;;;17.22;100.00
20455;BME280;10386;54.314;10.022;2022-09-24T12:16:11;101226.22;;;17.22;100.00
20455;BME280;10386;54.314;10.022;2022-09-24T12:18:51;101225.97;;;17.34;100.00
20455;BME280;10386;54.314;10.022;2022-09-24T12:21:30;101222.75;;;17.29;100.00
20455;BME280;10386;54.314;10.022;2022-09-24T12:24:10;101236.31;;;17.21;100.00
20455;BME280;10386;54.314;10.022;2022-09-24T12:26:40;101242.09;;;17.09;100.00
20455;BME280;10386;54.314;10.022;2022-09-24T12:38:02;101239.19;;;17.01;100.00
20455;BME280;10386;54.314;10.022;2022-09-24T12:43:27;101244.19;;;16.86;100.00
20455;BME280;10386;54.314;10.022;2022-09-24T12:46:04;101241.00;;;16.81;100.00
20455;BME280;10386;54.314;10.022;2022-09-24T12:48:35;101239.25;;;16.90;100.00
20455;BME280;10386;54.314;10.022;2022-09-24T12:51:05;101236.06;;;16.85;100.00
20455;BME280;10386;54.314;10.022;2022-09-24T12:53:37;101231.88;;;16.81;100.00
20455;BME280;10386;54.314;10.022;2022-09-24T12:56:06;101225.50;;;16.71;100.00
20455;BME280;10386;54.314;10.022;2022-09-24T12:58:36;101229.56;;;16.86;100.00
20455;BME280;10386;54.314;10.022;2022-09-24T13:06:43;101229.88;;;16.83;100.00
20455;BME280;10386;54.314;10.022;2022-09-24T13:12:38;101225.75;;;16.68;100.00
20455;BME280;10386;54.314;10.022;2022-09-24T13:15:03;101227.09;;;16.44;100.00
20455;BME280;10386;54.314;10.022;2022-09-24T13:17:33;101222.81;;;16.30;100.00
20455;BME280;10386;54.314;10.022;2022-09-24T13:20:05;101211.13;;;16.28;100.00
20455;BME280;10386;54.314;10.022;2022-09-24T13:22:35;101207.88;;;16.34;100.00
20455;BME280;10386;54.314;10.022;2022-09-24T13:27:39;101195.81;;;16.46;100.00
20455;BME280;10386;54.314;10.022;2022-09-24T13:32:44;101198.03;;;16.11;100.00
20455;BME280;10386;54.314;10.022;2022-09-24T13:35:19;101198.25;;;16.19;100.00
20455;BME280;10386;54.314;10.022;2022-09-24T13:37:54;101190.16;;;16.18;100.00
20455;BME280;10386;54.314;10.022;2022-09-24T13:40:27;101184.94;;;16.35;100.00
20455;BME280;10386;54.314;10.022;2022-09-24T13:43:07;101185.03;;;16.04;100.00
20455;BME280;10386;54.314;10.022;2022-09-24T13:45:40;101186.78;;;16.14;100.00
20455;BME280;10386;54.314;10.022;2022-09-24T13:48:35;101179.47;;;16.15;100.00
20455;BME280;10386;54.314;10.022;2022-09-24T13:51:06;101176.72;;;16.15;100.00
20455;BME280;10386;54.314;10.022;2022-09-24T13:53:48;101173.72;;;15.97;100.00
20455;BME280;10386;54.314;10.022;2022-09-24T13:56:21;101163.59;;;15.88;100.00
20455;BME280;10386;54.314;10.022;2022-09-24T13:58:51;101153.16;;;15.82;100.00
20455;BME280;10386;54.314;10.022;2022-09-24T14:01:35;101146.50;;;15.75;100.00
20455;BME280;10386;54.314;10.022;2022-09-24T14:04:18;101130.34;;;15.72;100.00
20455;BME280;10386;54.314;10.022;2022-09-24T14:06:49;101121.66;;;15.67;100.00
20455;BME280;10386;54.314;10.022;2022-09-24T14:09:34;101116.00;;;15.59;100.00
20455;BME280;10386;54.314;10.022;2022-09-24T14:12:13;101113.84;;;15.63;100.00
20455;BME280;10386;54.314;10.022;2022-09-24T14:14:53;101103.84;;;15.52;100.00
20455;BME280;10386;54.314;10.022;2022-09-24T14:17:24;101096.69;;;15.61;100.00
20455;BME280;10386;54.314;10.022;2022-09-24T14:19:55;101088.72;;;15.48;100.00
20455;BME280;10386;54.314;10.022;2022-09-24T14:22:29;101082.50;;;15.46;100.00
20455;BME280;10386;54.314;10.022;2022-09-24T14:27:58;101064.00;;;15.39;100.00
20455;BME280;10386;54.314;10.022;2022-09-24T14:30:28;101057.47;;;15.30;100.00
20455;BME280;10386;54.314;10.022;2022-09-24T14:33:04;101050.47;;;15.37;100.00
20455;BME280;10386;54.314;10.022;2022-09-24T14:35:34;101044.84;;;15.39;100.00